Time,TemperatureF,DewpointF,PressureIn,WindDirection,WindDirectionDegrees,WindSpeedMPH,WindSpeedGustMPH,Humidity,HourlyPrecipIn,Conditions,Clouds,dailyrainin,SoftwareType,DateUTC
2013-03-03 00:00:00,41.4,33.4,29.88,North,0,0.0,0.0,73,0.00,,,0.00,WUHU216HW,2013-03-03 05:00:00,
2013-03-03 00:01:00,41.4,33.4,29.88,North,0,0.0,0.0,73,0.00,,,0.00,WUHU216HW,2013-03-03 05:01:00,
2013-03-03 00:06:00,41.4,33.4,29.88,North,0,0.0,0.0,73,0.00,,,0.00,WUHU216HW,2013-03-03 05:06:00,
2013-03-03 00:30:00,41.2,33.5,29.87,North,0,0.0,0.0,74,0.00,,,0.00,WUHU216HW,2013-03-03 05:30:00,
2013-03-03 00:35:00,41.2,33.5,29.87,North,0,0.0,0.0,74,0.00,,,0.00,WUHU216HW,2013-03-03 05:35:00,
2013-03-03 00:59:00,40.9,33.1,29.88,North,0,0.0,0.0,74,0.00,,,0.00,WUHU216HW,2013-03-03 05:59:00,
2013-03-03 01:00:00,40.9,33.1,29.88,North,0,0.0,0.0,74,0.00,,,0.00,WUHU216HW,2013-03-03 06:00:00,
2013-03-03 01:05:00,40.9,33.1,29.88,North,0,0.0,0.0,74,0.00,,,0.00,WUHU216HW,2013-03-03 06:05:00,
2013-03-03 01:30:00,40.1,32.5,29.88,North,0,0.0,0.0,74,0.00,,,0.00,WUHU216HW,2013-03-03 06:30:00,
2013-03-03 01:35:00,40.1,32.5,29.88,North,0,0.0,0.0,74,0.00,,,0.00,WUHU216HW,2013-03-03 06:35:00,
2013-03-03 01:59:00,39.4,32.1,29.89,North,0,0.0,0.0,75,0.00,,,0.00,WUHU216HW,2013-03-03 06:59:00,
2013-03-03 02:00:00,39.4,32.1,29.89,North,0,0.0,0.0,75,0.00,,,0.00,WUHU216HW,2013-03-03 07:00:00,
2013-03-03 02:05:00,39.4,32.1,29.89,North,0,0.0,0.0,75,0.00,,,0.00,WUHU216HW,2013-03-03 07:05:00,
2013-03-03 02:30:00,38.5,31.2,29.88,North,0,0.0,0.0,75,0.00,,,0.00,WUHU216HW,2013-03-03 07:30:00,
2013-03-03 02:35:00,38.5,31.2,29.88,North,0,0.0,0.0,75,0.00,,,0.00,WUHU216HW,2013-03-03 07:35:00,
2013-03-03 03:00:00,38.2,31.0,29.88,North,0,0.0,0.0,75,0.00,,,0.00,WUHU216HW,2013-03-03 08:00:00,
2013-03-03 03:05:00,38.2,31.0,29.88,North,0,0.0,0.0,75,0.00,,,0.00,WUHU216HW,2013-03-03 08:05:00,
2013-03-03 03:30:00,37.8,30.6,29.88,North,0,0.0,0.0,75,0.00,,,0.00,WUHU216HW,2013-03-03 08:30:00,
2013-03-03 03:35:00,37.8,30.6,29.88,North,0,0.0,0.0,75,0.00,,,0.00,WUHU216HW,2013-03-03 08:35:00,
2013-03-03 03:59:00,37.3,28.8,29.88,North,0,0.0,0.0,71,0.00,,,0.00,WUHU216HW,2013-03-03 08:59:00,
2013-03-03 04:00:00,37.3,28.8,29.88,North,0,0.0,0.0,71,0.00,,,0.00,WUHU216HW,2013-03-03 09:00:00,
2013-03-03 04:05:00,37.3,28.8,29.88,North,0,0.0,0.0,71,0.00,,,0.00,WUHU216HW,2013-03-03 09:05:00,
2013-03-03 04:30:00,36.9,25.8,29.89,North,0,0.0,0.0,64,0.00,,,0.00,WUHU216HW,2013-03-03 09:30:00,
2013-03-03 04:35:00,36.9,25.8,29.89,North,0,0.0,0.0,64,0.00,,,0.00,WUHU216HW,2013-03-03 09:35:00,
2013-03-03 05:00:00,36.2,24.5,29.90,North,0,0.0,0.0,62,0.00,,,0.00,WUHU216HW,2013-03-03 10:00:00,
2013-03-03 05:05:00,36.2,24.5,29.90,North,0,0.0,0.0,62,0.00,,,0.00,WUHU216HW,2013-03-03 10:05:00,
2013-03-03 05:30:00,35.6,26.1,29.91,North,0,0.0,0.0,68,0.00,,,0.00,WUHU216HW,2013-03-03 10:30:00,
2013-03-03 05:35:00,35.6,26.1,29.91,North,0,0.0,0.0,68,0.00,,,0.00,WUHU216HW,2013-03-03 10:35:00,
2013-03-03 06:00:00,35.3,26.1,29.92,North,0,0.0,0.0,69,0.00,,,0.00,WUHU216HW,2013-03-03 11:00:00,
2013-03-03 06:05:00,35.3,26.1,29.92,North,0,0.0,0.0,69,0.00,,,0.00,WUHU216HW,2013-03-03 11:05:00,
2013-03-03 06:30:00,35.8,25.9,29.92,North,0,0.0,0.0,67,0.00,,,0.00,WUHU216HW,2013-03-03 11:30:00,
2013-03-03 06:35:00,35.8,25.9,29.92,North,0,0.0,0.0,67,0.00,,,0.00,WUHU216HW,2013-03-03 11:35:00,
2013-03-03 07:00:00,36.0,25.8,29.93,North,0,0.0,0.0,66,0.00,,,0.00,WUHU216HW,2013-03-03 12:00:00,
2013-03-03 07:05:00,36.0,25.8,29.93,North,0,0.0,0.0,66,0.00,,,0.00,WUHU216HW,2013-03-03 12:05:00,
2013-03-03 07:30:00,36.0,25.0,29.94,North,0,0.0,0.0,64,0.00,,,0.00,WUHU216HW,2013-03-03 12:30:00,
2013-03-03 07:35:00,36.0,25.0,29.94,North,0,0.0,0.0,64,0.00,,,0.00,WUHU216HW,2013-03-03 12:35:00,
2013-03-03 08:00:00,36.7,24.9,29.94,North,0,0.0,0.0,62,0.00,,,0.00,WUHU216HW,2013-03-03 13:00:00,
2013-03-03 08:05:00,36.7,24.9,29.94,North,0,0.0,0.0,62,0.00,,,0.00,WUHU216HW,2013-03-03 13:05:00,
2013-03-03 08:30:00,37.4,24.8,29.95,North,0,0.0,0.0,60,0.00,,,0.00,WUHU216HW,2013-03-03 13:30:00,
2013-03-03 08:35:00,37.4,24.8,29.95,North,0,0.0,0.0,60,0.00,,,0.00,WUHU216HW,2013-03-03 13:35:00,
2013-03-03 09:00:00,38.2,25.8,29.95,North,0,0.0,0.0,61,0.00,,,0.00,WUHU216HW,2013-03-03 14:00:00,
2013-03-03 09:05:00,38.2,25.8,29.95,North,0,0.0,0.0,61,0.00,,,0.00,WUHU216HW,2013-03-03 14:05:00,
2013-03-03 09:30:00,40.7,25.2,29.94,North,0,0.0,0.0,54,0.00,,,0.00,WUHU216HW,2013-03-03 14:30:00,
2013-03-03 09:35:00,40.7,25.2,29.94,North,0,0.0,0.0,54,0.00,,,0.00,WUHU216HW,2013-03-03 14:35:00,
2013-03-03 10:00:00,41.0,24.2,29.94,North,0,0.0,0.0,51,0.00,,,0.00,WUHU216HW,2013-03-03 15:00:00,
2013-03-03 10:05:00,41.0,24.2,29.94,North,0,0.0,0.0,51,0.00,,,0.00,WUHU216HW,2013-03-03 15:05:00,
2013-03-03 10:30:00,42.3,25.0,29.93,North,0,0.0,0.0,50,0.00,,,0.00,WUHU216HW,2013-03-03 15:30:00,
2013-03-03 10:35:00,42.3,25.0,29.93,North,0,0.0,0.0,50,0.00,,,0.00,WUHU216HW,2013-03-03 15:35:00,
2013-03-03 11:00:00,43.4,24.4,29.93,North,0,0.0,0.0,47,0.00,,,0.00,WUHU216HW,2013-03-03 16:00:00,
2013-03-03 11:05:00,43.4,24.4,29.93,North,0,0.0,0.0,47,0.00,,,0.00,WUHU216HW,2013-03-03 16:05:00,
2013-03-03 11:30:00,45.2,25.5,29.92,North,0,0.0,0.0,46,0.00,,,0.00,WUHU216HW,2013-03-03 16:30:00,
2013-03-03 11:35:00,45.2,25.5,29.92,North,0,0.0,0.0,46,0.00,,,0.00,WUHU216HW,2013-03-03 16:35:00,
2013-03-03 12:00:00,46.4,25.6,29.90,North,0,0.0,0.0,44,0.00,,,0.00,WUHU216HW,2013-03-03 17:00:00,
2013-03-03 12:05:00,46.4,25.6,29.90,North,0,0.0,0.0,44,0.00,,,0.00,WUHU216HW,2013-03-03 17:05:00,
2013-03-03 12:30:00,47.3,25.3,29.89,North,0,0.0,0.0,42,0.00,,,0.00,WUHU216HW,2013-03-03 17:30:00,
2013-03-03 12:35:00,47.3,25.3,29.89,North,0,0.0,0.0,42,0.00,,,0.00,WUHU216HW,2013-03-03 17:35:00,
2013-03-03 13:00:00,48.2,25.0,29.87,North,0,0.0,0.0,40,0.00,,,0.00,WUHU216HW,2013-03-03 18:00:00,
2013-03-03 13:05:00,48.2,25.0,29.87,North,0,0.0,0.0,40,0.00,,,0.00,WUHU216HW,2013-03-03 18:05:00,
2013-03-03 13:30:00,49.0,25.0,29.86,North,0,0.0,0.0,39,0.00,,,0.00,WUHU216HW,2013-03-03 18:30:00,
2013-03-03 13:35:00,49.0,25.0,29.86,North,0,0.0,0.0,39,0.00,,,0.00,WUHU216HW,2013-03-03 18:35:00,
2013-03-03 14:00:00,49.1,25.8,29.86,North,0,0.0,0.0,40,0.00,,,0.00,WUHU216HW,2013-03-03 19:00:00,
2013-03-03 14:05:00,49.1,25.8,29.86,North,0,0.0,0.0,40,0.00,,,0.00,WUHU216HW,2013-03-03 19:05:00,
2013-03-03 14:30:00,50.0,26.6,29.86,North,0,0.0,0.0,40,0.00,,,0.00,WUHU216HW,2013-03-03 19:30:00,
2013-03-03 14:35:00,50.0,26.6,29.86,North,0,0.0,0.0,40,0.00,,,0.00,WUHU216HW,2013-03-03 19:35:00,
2013-03-03 15:00:00,50.0,26.6,29.86,North,0,0.0,0.0,40,0.00,,,0.00,WUHU216HW,2013-03-03 20:00:00,
2013-03-03 15:05:00,50.0,26.6,29.86,North,0,0.0,0.0,40,0.00,,,0.00,WUHU216HW,2013-03-03 20:05:00,
2013-03-03 15:30:00,50.0,26.6,29.86,North,0,0.0,0.0,40,0.00,,,0.00,WUHU216HW,2013-03-03 20:30:00,
2013-03-03 15:35:00,50.0,26.6,29.86,North,0,0.0,0.0,40,0.00,,,0.00,WUHU216HW,2013-03-03 20:35:00,
2013-03-03 16:00:00,49.7,25.7,29.86,North,0,0.0,0.0,39,0.00,,,0.00,WUHU216HW,2013-03-03 21:00:00,
2013-03-03 16:05:00,49.7,25.7,29.86,North,0,0.0,0.0,39,0.00,,,0.00,WUHU216HW,2013-03-03 21:05:00,
2013-03-03 16:30:00,49.3,26.0,29.86,North,0,0.0,0.0,40,0.00,,,0.00,WUHU216HW,2013-03-03 21:30:00,
2013-03-03 16:35:00,49.3,26.0,29.86,North,0,0.0,0.0,40,0.00,,,0.00,WUHU216HW,2013-03-03 21:35:00,
2013-03-03 17:00:00,49.1,25.8,29.87,North,0,0.0,0.0,40,0.00,,,0.00,WUHU216HW,2013-03-03 22:00:00,
2013-03-03 17:05:00,49.1,25.8,29.87,North,0,0.0,0.0,40,0.00,,,0.00,WUHU216HW,2013-03-03 22:05:00,
2013-03-03 17:30:00,47.7,25.7,29.87,North,0,0.0,0.0,42,0.00,,,0.00,WUHU216HW,2013-03-03 22:30:00,
2013-03-03 17:35:00,47.7,25.7,29.87,North,0,0.0,0.0,42,0.00,,,0.00,WUHU216HW,2013-03-03 22:35:00,
2013-03-03 18:00:00,46.4,26.1,29.89,North,0,0.0,0.0,45,0.00,,,0.00,WUHU216HW,2013-03-03 23:00:00,
2013-03-03 18:05:00,46.4,26.1,29.89,North,0,0.0,0.0,45,0.00,,,0.00,WUHU216HW,2013-03-03 23:05:00,
2013-03-03 18:30:00,44.8,26.8,29.90,North,0,0.0,0.0,49,0.00,,,0.00,WUHU216HW,2013-03-03 23:30:00,
2013-03-03 18:35:00,44.8,26.8,29.90,North,0,0.0,0.0,49,0.00,,,0.00,WUHU216HW,2013-03-03 23:35:00,
2013-03-03 18:41:00,44.8,26.8,29.90,North,0,0.0,0.0,49,0.00,,,0.00,WUHU216HW,2013-03-03 23:41:00,
2013-03-03 18:42:00,44.8,26.8,29.90,North,0,0.0,0.0,49,0.00,,,0.00,WUHU216HW,2013-03-03 23:42:00,
2013-03-03 18:47:00,44.8,26.8,29.90,North,0,0.0,0.0,49,0.00,,,0.00,WUHU216HW,2013-03-03 23:47:00,
2013-03-03 19:00:00,44.1,27.2,29.92,North,0,0.0,0.0,51,0.00,,,0.00,WUHU216HW,2013-03-04 00:00:00,
2013-03-03 19:05:00,44.1,27.2,29.92,North,0,0.0,0.0,51,0.00,,,0.00,WUHU216HW,2013-03-04 00:05:00,
2013-03-03 19:30:00,43.2,27.2,29.93,North,0,0.0,0.0,53,0.00,,,0.00,WUHU216HW,2013-03-04 00:30:00,
2013-03-03 19:35:00,43.2,27.2,29.93,North,0,0.0,0.0,53,0.00,,,0.00,WUHU216HW,2013-03-04 00:35:00,
2013-03-03 20:00:00,42.3,27.6,29.94,North,0,0.0,0.0,56,0.00,,,0.00,WUHU216HW,2013-03-04 01:00:00,
2013-03-03 20:05:00,42.3,27.6,29.94,North,0,0.0,0.0,56,0.00,,,0.00,WUHU216HW,2013-03-04 01:05:00,
2013-03-03 20:30:00,41.4,27.7,29.95,North,0,0.0,0.0,58,0.00,,,0.00,WUHU216HW,2013-03-04 01:30:00,
2013-03-03 20:35:00,41.4,27.7,29.95,North,0,0.0,0.0,58,0.00,,,0.00,WUHU216HW,2013-03-04 01:35:00,
2013-03-03 21:00:00,41.0,27.8,29.96,North,0,0.0,0.0,59,0.00,,,0.00,WUHU216HW,2013-03-04 02:00:00,
2013-03-03 21:05:00,41.0,27.8,29.96,North,0,0.0,0.0,59,0.00,,,0.00,WUHU216HW,2013-03-04 02:05:00,
2013-03-03 21:30:00,40.5,28.1,29.96,North,0,0.0,0.0,61,0.00,,,0.00,WUHU216HW,2013-03-04 02:30:00,
2013-03-03 21:35:00,40.5,28.1,29.96,North,0,0.0,0.0,61,0.00,,,0.00,WUHU216HW,2013-03-04 02:35:00,
2013-03-03 22:00:00,41.6,27.9,29.96,North,0,0.0,0.0,58,0.00,,,0.00,WUHU216HW,2013-03-04 03:00:00,
2013-03-03 22:05:00,41.6,27.9,29.96,North,0,0.0,0.0,58,0.00,,,0.00,WUHU216HW,2013-03-04 03:05:00,
2013-03-03 22:30:00,41.2,27.1,29.96,North,0,0.0,0.0,57,0.00,,,0.00,WUHU216HW,2013-03-04 03:30:00,
2013-03-03 22:35:00,41.2,27.1,29.96,North,0,0.0,0.0,57,0.00,,,0.00,WUHU216HW,2013-03-04 03:35:00,
2013-03-03 23:00:00,39.4,27.8,29.97,North,0,0.0,0.0,63,0.00,,,0.00,WUHU216HW,2013-03-04 04:00:00,
2013-03-03 23:05:00,39.4,27.8,29.97,North,0,0.0,0.0,63,0.00,,,0.00,WUHU216HW,2013-03-04 04:05:00,
2013-03-03 23:30:00,39.1,27.5,29.96,North,0,0.0,0.0,63,0.00,,,0.00,WUHU216HW,2013-03-04 04:30:00,
2013-03-03 23:35:00,39.1,27.5,29.96,North,0,0.0,0.0,63,0.00,,,0.00,WUHU216HW,2013-03-04 04:35:00,